createdAt,value
2019-04-06T00:02:16.621Z,45.35
2019-04-06T00:04:45.186Z,48.48
2019-04-06T00:07:13.773Z,45.08
2019-04-06T00:09:42.334Z,43.98
2019-04-06T00:12:10.918Z,44.83
2019-04-06T00:14:39.466Z,54.75
2019-04-06T00:17:08.393Z,53.50
2019-04-06T00:19:36.944Z,51.37
2019-04-06T00:22:05.567Z,59.63
2019-04-06T00:24:34.147Z,59.20
2019-04-06T00:27:02.764Z,66.55
2019-04-06T00:29:31.338Z,57.73
2019-04-06T00:32:01.563Z,63.30
2019-04-06T00:34:30.127Z,56.20
2019-04-06T00:36:58.773Z,56.95
2019-04-06T00:39:27.256Z,55.63
2019-04-06T00:41:55.828Z,54.77
2019-04-06T00:44:24.312Z,48.65
2019-04-06T00:46:52.894Z,59.27
2019-04-06T00:49:21.372Z,60.75
2019-04-06T00:51:50.135Z,55.35
2019-04-06T00:54:18.713Z,58.30
2019-04-06T00:56:47.321Z,55.20
2019-04-06T00:59:15.836Z,55.30
2019-04-06T01:01:44.418Z,49.77
2019-04-06T01:04:12.972Z,55.38
2019-04-06T01:06:41.573Z,52.90
2019-04-06T01:09:10.126Z,54.48
2019-04-06T01:11:38.894Z,59.03
2019-04-06T01:14:07.469Z,49.18
2019-04-06T01:16:36.112Z,52.13
2019-04-06T01:19:04.766Z,58.55
2019-04-06T01:21:33.329Z,54.75
2019-04-06T01:24:01.902Z,55.85
2019-04-06T01:26:30.468Z,67.70
2019-04-06T01:28:58.973Z,94.30
2019-04-06T01:31:27.525Z,70.70
2019-04-06T01:33:56.102Z,66.35
2019-04-06T01:36:24.744Z,60.50
2019-04-06T01:38:53.323Z,67.27
2019-04-06T01:41:21.877Z,62.75
2019-04-06T01:43:50.472Z,62.03
2019-04-06T01:46:19.025Z,54.50
2019-04-06T01:48:47.596Z,52.85
2019-04-06T01:51:16.076Z,51.23
2019-04-06T01:53:44.663Z,45.48
2019-04-06T01:56:18.361Z,44.23
2019-04-06T01:58:43.440Z,45.75
2019-04-06T02:01:13.653Z,40.15
2019-04-06T02:03:42.153Z,46.08
2019-04-06T02:06:10.711Z,50.38
2019-04-06T02:08:39.289Z,48.63
2019-04-06T02:11:07.860Z,47.50
2019-04-06T02:13:36.436Z,51.37
2019-04-06T02:16:04.932Z,51.18
2019-04-06T02:18:33.498Z,50.95
2019-04-06T02:21:02.626Z,55.28
2019-04-06T02:23:31.212Z,52.85
2019-04-06T02:25:59.752Z,57.35
2019-04-06T02:28:28.262Z,52.30
2019-04-06T02:31:07.774Z,54.53
2019-04-06T02:33:43.699Z,51.83
2019-04-06T02:36:19.701Z,54.63
2019-04-06T02:38:50.002Z,52.08
2019-04-06T02:41:20.163Z,57.65
2019-04-06T02:43:48.745Z,59.03
2019-04-06T02:46:17.300Z,51.23
2019-04-06T02:48:45.890Z,51.98
2019-04-06T02:51:14.425Z,55.33
2019-04-06T02:53:43.128Z,59.08
2019-04-06T02:56:11.657Z,54.18
2019-04-06T02:58:40.322Z,52.58
2019-04-06T03:01:08.879Z,57.55
2019-04-06T03:03:37.665Z,61.77
2019-04-06T03:06:06.257Z,63.48
2019-04-06T03:08:34.745Z,59.48
2019-04-06T03:11:03.343Z,62.03
2019-04-06T03:13:31.884Z,67.53
2019-04-06T03:16:00.467Z,69.37
2019-04-06T03:18:29.029Z,61.37
2019-04-06T03:20:57.606Z,62.00
2019-04-06T03:23:26.150Z,67.87
2019-04-06T03:25:54.737Z,70.05
2019-04-06T03:28:23.314Z,44.53
2019-04-06T03:30:51.901Z,45.73
2019-04-06T03:33:20.519Z,52.88
2019-04-06T03:35:50.541Z,49.67
2019-04-06T03:38:19.553Z,57.53
2019-04-06T03:40:48.115Z,64.20
2019-04-06T03:43:16.683Z,70.50
2019-04-06T03:45:45.269Z,70.65
2019-04-06T03:48:13.826Z,77.55
2019-04-06T03:50:42.413Z,98.75
2019-04-06T03:53:10.978Z,81.30
2019-04-06T03:55:39.632Z,100.27
2019-04-06T03:58:08.203Z,103.25
2019-04-06T04:00:36.785Z,96.08
2019-04-06T04:03:05.410Z,99.95
2019-04-06T04:05:34.013Z,92.82
2019-04-06T04:08:02.565Z,81.08
2019-04-06T04:10:36.350Z,86.57
2019-04-06T04:13:05.627Z,80.60
2019-04-06T04:15:34.586Z,86.97
2019-04-06T04:18:03.207Z,82.97
2019-04-06T04:20:31.824Z,80.95
2019-04-06T04:23:00.383Z,78.55
2019-04-06T04:25:28.964Z,74.55
2019-04-06T04:27:57.539Z,72.60
2019-04-06T04:30:32.942Z,86.87
2019-04-06T04:32:56.463Z,82.30
2019-04-06T04:35:25.085Z,83.65
2019-04-06T04:37:53.630Z,84.15
2019-04-06T04:40:22.214Z,81.22
2019-04-06T04:42:50.703Z,83.50
2019-04-06T04:45:19.294Z,81.90
2019-04-06T04:47:50.146Z,80.62
2019-04-06T04:50:18.106Z,89.07
2019-04-06T04:52:46.664Z,82.97
2019-04-06T04:55:15.322Z,86.72
2019-04-06T04:57:45.387Z,79.80
2019-04-06T05:00:14.651Z,77.47
2019-04-06T05:02:43.205Z,86.70
2019-04-06T05:05:12.193Z,82.75
2019-04-06T05:07:40.770Z,81.87
2019-04-06T05:10:09.570Z,83.70
2019-04-06T05:12:38.148Z,87.15
2019-04-06T05:15:12.601Z,90.45
2019-04-06T05:17:41.126Z,85.97
2019-04-06T05:20:10.179Z,78.15
2019-04-06T05:22:38.710Z,95.03
2019-04-06T05:25:08.308Z,85.45
2019-04-06T05:27:37.028Z,92.08
2019-04-06T05:30:08.301Z,113.22
2019-04-06T05:32:37.124Z,108.45
2019-04-06T05:35:06.358Z,105.55
2019-04-06T05:37:34.929Z,90.00
2019-04-06T05:40:04.288Z,74.72
2019-04-06T05:42:32.806Z,70.32
2019-04-06T05:45:01.531Z,69.55
2019-04-06T05:47:30.050Z,61.50
2019-04-06T05:49:58.611Z,67.15
2019-04-06T05:52:27.138Z,65.22
2019-04-06T05:54:55.689Z,72.97
2019-04-06T05:57:24.284Z,67.55
2019-04-06T05:59:52.827Z,70.47
2019-04-06T06:02:21.420Z,67.95
2019-04-06T06:04:49.982Z,73.85
2019-04-06T06:07:18.562Z,66.42
2019-04-06T06:09:47.139Z,69.80
2019-04-06T06:12:15.907Z,65.08
2019-04-06T06:14:44.441Z,68.80
2019-04-06T06:17:14.334Z,69.05
2019-04-06T06:19:43.096Z,64.60
2019-04-06T06:22:11.681Z,66.97
2019-04-06T06:24:40.249Z,67.95
2019-04-06T06:27:08.837Z,69.58
2019-04-06T06:29:37.407Z,67.82
2019-04-06T06:32:06.073Z,66.28
2019-04-06T06:34:34.613Z,60.25
2019-04-06T06:37:03.185Z,64.27
2019-04-06T06:39:31.738Z,64.77
2019-04-06T06:42:00.381Z,61.98
2019-04-06T06:44:29.155Z,66.65
2019-04-06T06:46:57.865Z,68.87
2019-04-06T06:49:26.361Z,71.92
2019-04-06T06:51:54.975Z,69.30
2019-04-06T06:54:23.478Z,67.35
2019-04-06T06:56:52.129Z,63.35
2019-04-06T06:59:20.685Z,64.03
2019-04-06T07:01:49.194Z,61.75
2019-04-06T07:04:17.745Z,56.37
2019-04-06T07:06:46.316Z,61.53
2019-04-06T07:09:14.790Z,63.50
2019-04-06T07:11:43.341Z,53.90
2019-04-06T07:14:11.943Z,57.62
2019-04-06T07:16:40.486Z,56.92
2019-04-06T07:19:09.073Z,55.17
2019-04-06T07:21:37.542Z,62.98
2019-04-06T07:24:06.177Z,62.17
2019-04-06T07:26:34.722Z,65.35
2019-04-06T07:29:03.331Z,65.08
2019-04-06T07:31:31.849Z,63.68
2019-04-06T07:34:00.440Z,64.60
2019-04-06T07:36:28.985Z,62.23
2019-04-06T07:38:57.482Z,60.50
2019-04-06T07:41:26.025Z,56.37
2019-04-06T07:43:54.703Z,62.70
2019-04-06T07:46:23.257Z,56.68
2019-04-06T07:48:51.762Z,57.33
2019-04-06T07:51:20.336Z,58.68
2019-04-06T07:53:48.883Z,55.98
2019-04-06T07:56:17.441Z,56.53
2019-04-06T07:58:49.387Z,53.83
2019-04-06T08:01:16.241Z,55.25
2019-04-06T08:03:44.801Z,52.93
2019-04-06T08:06:13.358Z,53.35
2019-04-06T08:08:42.075Z,58.38
2019-04-06T08:11:10.644Z,58.13
2019-04-06T08:13:39.227Z,55.20
2019-04-06T08:16:07.851Z,53.73
2019-04-06T08:18:41.099Z,59.77
2019-04-06T08:21:09.958Z,54.65
2019-04-06T08:23:38.758Z,56.18
2019-04-06T08:26:07.427Z,56.40
2019-04-06T08:28:35.994Z,55.20
2019-04-06T08:31:04.616Z,56.88
2019-04-06T08:33:33.201Z,55.78
2019-04-06T08:36:01.757Z,55.73
2019-04-06T08:38:30.411Z,57.10
2019-04-06T08:40:58.940Z,57.15
2019-04-06T08:43:27.593Z,57.98
2019-04-06T08:45:56.140Z,52.62
2019-04-06T08:48:24.695Z,57.17
2019-04-06T08:50:53.321Z,54.83
2019-04-06T08:53:21.911Z,55.58
2019-04-06T08:55:50.455Z,54.85
2019-04-06T08:58:19.113Z,54.80
2019-04-06T09:00:47.594Z,57.25
2019-04-06T09:03:16.200Z,53.83
2019-04-06T09:05:44.786Z,58.90
2019-04-06T09:08:13.365Z,53.98
2019-04-06T09:10:42.082Z,55.50
2019-04-06T09:13:10.737Z,55.35
2019-04-06T09:15:39.486Z,60.17
2019-04-06T09:18:08.075Z,54.90
2019-04-06T09:20:36.671Z,56.80
2019-04-06T09:23:05.303Z,51.98
2019-04-06T09:25:33.834Z,49.08
2019-04-06T09:28:02.460Z,49.03
2019-04-06T09:30:31.031Z,45.58
2019-04-06T09:32:59.629Z,44.75
2019-04-06T09:35:28.207Z,46.35
2019-04-06T09:37:59.329Z,42.30
2019-04-06T09:40:28.361Z,41.30
2019-04-06T09:42:57.094Z,43.23
2019-04-06T09:45:41.416Z,41.25
2019-04-06T09:48:27.233Z,38.17
2019-04-06T09:51:15.257Z,39.75
2019-04-06T09:53:45.988Z,39.20
2019-04-06T09:56:22.494Z,36.68
2019-04-06T09:59:04.656Z,34.60
2019-04-06T10:01:38.862Z,32.13
2019-04-06T10:04:18.690Z,30.87
2019-04-06T10:07:00.418Z,32.10
2019-04-06T10:09:45.334Z,32.60
2019-04-06T10:12:15.625Z,26.87
2019-04-06T10:15:09.426Z,29.77
2019-04-06T10:17:57.345Z,30.97
2019-04-06T10:20:39.748Z,32.60
2019-04-06T10:23:26.193Z,38.92
2019-04-06T10:25:59.479Z,37.60
2019-04-06T10:28:32.303Z,33.13
2019-04-06T10:31:05.357Z,33.55
2019-04-06T10:33:51.275Z,31.97
2019-04-06T10:36:24.571Z,36.48
2019-04-06T10:39:09.433Z,32.65
2019-04-06T10:41:42.448Z,31.87
2019-04-06T10:44:15.381Z,31.27
2019-04-06T10:49:35.571Z,32.48
2019-04-06T10:52:09.531Z,36.83
2019-04-06T10:54:55.833Z,37.03
2019-04-06T10:57:42.379Z,34.00
2019-04-06T11:00:29.172Z,33.15
2019-04-06T11:03:05.374Z,34.03
2019-04-06T11:05:41.647Z,34.43
2019-04-06T11:08:17.637Z,31.17
2019-04-06T11:11:01.192Z,31.62
2019-04-06T11:13:43.428Z,30.75
2019-04-06T11:16:13.807Z,33.13
2019-04-06T11:18:49.567Z,35.25
2019-04-06T11:21:20.200Z,31.20
2019-04-06T11:24:06.504Z,34.23
2019-04-06T11:26:36.737Z,25.95
2019-04-06T11:29:09.964Z,24.12
2019-04-06T11:31:42.633Z,20.65
2019-04-06T11:34:28.755Z,22.25
2019-04-06T11:37:04.833Z,21.10
2019-04-06T11:39:51.287Z,19.42
2019-04-06T11:42:37.475Z,16.93
2019-04-06T11:45:11.480Z,20.02
2019-04-06T11:47:53.567Z,18.80
2019-04-06T11:50:26.519Z,23.42
2019-04-06T11:55:29.110Z,19.82
2019-04-06T11:58:08.178Z,22.45
2019-04-06T12:00:44.425Z,22.75
2019-04-06T12:03:23.482Z,20.05
2019-04-06T12:05:53.631Z,20.48
2019-04-06T12:08:26.724Z,20.75
2019-04-06T12:11:14.935Z,22.50
2019-04-06T12:14:00.814Z,20.05
2019-04-06T12:16:33.700Z,18.15
2019-04-06T12:21:51.502Z,18.60
2019-04-06T12:24:33.735Z,18.55
2019-04-06T12:27:13.083Z,19.97
2019-04-06T12:29:43.299Z,16.85
2019-04-06T12:32:25.631Z,19.77
2019-04-06T12:34:58.710Z,18.03
2019-04-06T12:37:28.973Z,16.50
2019-04-06T12:39:59.198Z,17.45
2019-04-06T12:42:45.711Z,17.48
2019-04-06T12:45:18.684Z,16.65
2019-04-06T12:48:04.946Z,16.62
2019-04-06T12:50:47.190Z,17.12
2019-04-06T12:53:26.069Z,14.63
2019-04-06T12:56:02.262Z,15.43
2019-04-06T12:58:38.480Z,16.32
2019-04-06T13:01:26.515Z,18.32
2019-04-06T13:04:11.741Z,15.55
2019-04-06T13:06:57.989Z,14.93
2019-04-06T13:09:40.033Z,15.78
2019-04-06T13:12:10.251Z,16.82
2019-04-06T13:14:55.675Z,13.45
2019-04-06T13:17:31.419Z,15.90
2019-04-06T13:20:10.503Z,14.75
2019-04-06T13:22:43.136Z,16.42
2019-04-06T13:25:29.584Z,14.50
2019-04-06T13:28:02.366Z,15.28
2019-04-06T13:30:47.458Z,13.15
2019-04-06T13:33:20.462Z,13.60
2019-04-06T13:35:50.686Z,13.55
2019-04-06T13:38:36.674Z,15.00
2019-04-06T13:41:16.204Z,16.82
2019-04-06T13:43:49.072Z,16.02
2019-04-06T13:49:09.914Z,14.18
2019-04-06T13:51:40.402Z,16.20
2019-04-06T13:54:10.651Z,15.03
2019-04-06T13:56:49.495Z,18.17
2019-04-06T13:59:19.714Z,12.65
2019-04-06T14:01:49.957Z,12.63
2019-04-06T14:04:39.328Z,11.88
2019-04-06T14:07:18.563Z,15.30
2019-04-06T14:09:54.510Z,17.62
2019-04-06T14:12:40.474Z,18.85
2019-04-06T14:15:28.428Z,15.18
2019-04-06T14:18:10.550Z,14.70
2019-04-06T14:20:56.985Z,13.58
2019-04-06T14:23:27.463Z,15.78
2019-04-06T14:25:57.634Z,17.65
2019-04-06T14:28:43.948Z,13.58
2019-04-06T14:31:29.607Z,13.22
2019-04-06T14:34:14.102Z,16.12
2019-04-06T14:36:50.610Z,16.17
2019-04-06T14:39:20.882Z,13.70
2019-04-06T14:41:57.037Z,15.68
2019-04-06T14:44:32.973Z,16.82
2019-04-06T14:47:11.893Z,14.05
2019-04-06T14:49:58.094Z,16.82
2019-04-06T14:52:44.830Z,14.23
2019-04-06T14:55:17.979Z,16.32
2019-04-06T14:57:48.179Z,15.60
2019-04-06T15:00:24.541Z,14.38
2019-04-06T15:03:00.399Z,15.28
2019-04-06T15:05:36.582Z,14.47
2019-04-06T15:08:07.067Z,14.65
2019-04-06T15:10:37.434Z,13.25
2019-04-06T15:13:10.253Z,16.52
2019-04-06T15:18:31.857Z,13.30
2019-04-06T15:21:11.198Z,21.37
2019-04-06T15:23:46.962Z,15.58
2019-04-06T15:26:17.208Z,17.82
2019-04-06T15:29:02.482Z,18.10
2019-04-06T15:31:51.075Z,16.73
2019-04-06T15:34:32.719Z,12.88
2019-04-06T15:37:17.997Z,13.35
2019-04-06T15:40:06.185Z,13.60
2019-04-06T15:42:48.022Z,12.28
2019-04-06T15:45:34.061Z,12.80
2019-04-06T15:48:19.081Z,13.43
2019-04-06T15:50:49.239Z,16.05
2019-04-06T15:53:31.904Z,13.20
2019-04-06T15:56:02.090Z,15.68
2019-04-06T15:58:32.241Z,13.28
2019-04-06T16:01:20.523Z,13.45
2019-04-06T16:04:06.644Z,12.65
2019-04-06T16:06:37.264Z,14.35
2019-04-06T16:09:10.873Z,13.40
2019-04-06T16:11:44.143Z,16.77
2019-04-06T16:14:28.853Z,14.25
2019-04-06T16:16:59.082Z,13.40
2019-04-06T16:19:45.193Z,16.52
2019-04-06T16:22:30.478Z,16.75
2019-04-06T16:25:00.613Z,17.62
2019-04-06T16:27:30.829Z,14.33
2019-04-06T16:30:17.802Z,12.70
2019-04-06T16:32:54.299Z,13.15
2019-04-06T16:35:30.543Z,18.10
2019-04-06T16:38:09.689Z,13.88
2019-04-06T16:40:39.906Z,15.23
2019-04-06T16:43:19.248Z,19.30
2019-04-06T16:46:01.569Z,12.65
2019-04-06T16:48:50.279Z,13.13
2019-04-06T16:51:26.293Z,17.27
2019-04-06T16:54:02.420Z,18.52
2019-04-06T16:56:39.085Z,17.92
2019-04-06T16:59:15.448Z,16.23
2019-04-06T17:01:45.636Z,13.03
2019-04-06T17:04:27.966Z,13.78
2019-04-06T17:06:58.203Z,14.47
2019-04-06T17:09:28.738Z,13.72
2019-04-06T17:11:59.257Z,13.25
2019-04-06T17:14:32.559Z,17.27
2019-04-06T17:17:18.775Z,13.40
2019-04-06T17:19:57.759Z,14.18
2019-04-06T17:22:28.149Z,13.60
2019-04-06T17:25:14.662Z,17.02
2019-04-06T17:27:47.830Z,19.07
2019-04-06T17:30:24.121Z,15.20
2019-04-06T17:33:03.056Z,14.98
2019-04-06T17:35:33.471Z,12.63
2019-04-06T17:38:06.454Z,15.13
2019-04-06T17:40:36.700Z,16.32
2019-04-06T17:43:15.785Z,16.02
2019-04-06T17:45:48.906Z,21.15
2019-04-06T17:48:21.648Z,23.57
2019-04-06T17:50:57.368Z,21.23
2019-04-06T17:53:39.046Z,23.27
2019-04-06T17:56:12.027Z,25.55
2019-04-06T17:58:58.267Z,19.57
2019-04-06T18:01:34.373Z,17.75
2019-04-06T18:04:19.482Z,22.82
2019-04-06T18:06:52.910Z,62.75
2019-04-06T18:09:31.888Z,19.20
2019-04-06T18:12:20.345Z,17.80
2019-04-06T18:14:48.888Z,18.62
2019-04-06T18:17:17.633Z,20.70
2019-04-06T18:19:46.502Z,19.67
2019-04-06T18:22:15.166Z,21.23
2019-04-06T18:24:43.761Z,23.65
2019-04-06T18:27:12.319Z,21.68
2019-04-06T18:29:41.071Z,24.32
2019-04-06T18:32:11.226Z,26.48
2019-04-06T18:34:42.631Z,32.13
2019-04-06T18:37:21.615Z,30.65
2019-04-06T18:39:51.849Z,27.93
2019-04-06T18:42:20.838Z,27.22
2019-04-06T18:44:49.823Z,25.95
2019-04-06T18:47:18.368Z,29.37
2019-04-06T18:49:46.871Z,28.30
2019-04-06T18:52:15.418Z,33.85
2019-04-06T18:54:44.001Z,38.63
2019-04-06T18:57:12.717Z,33.92
2019-04-06T18:59:41.361Z,32.53
2019-04-06T19:02:09.927Z,38.73
2019-04-06T19:04:38.516Z,49.67
2019-04-06T19:07:07.358Z,43.60
2019-04-06T19:09:36.015Z,34.08
2019-04-06T19:12:04.642Z,31.40
2019-04-06T19:14:33.238Z,25.97
2019-04-06T19:17:01.819Z,22.05
2019-04-06T19:19:30.772Z,19.77
2019-04-06T19:21:59.387Z,25.15
2019-04-06T19:24:28.057Z,22.05
2019-04-06T19:26:56.635Z,20.43
2019-04-06T19:29:25.233Z,24.25
2019-04-06T19:31:53.785Z,25.62
2019-04-06T19:34:22.361Z,19.32
2019-04-06T19:36:50.980Z,19.82
2019-04-06T19:39:19.780Z,20.70
2019-04-06T19:41:48.354Z,19.35
2019-04-06T19:44:16.874Z,22.60
2019-04-06T19:46:45.445Z,20.12
2019-04-06T19:49:14.244Z,19.40
2019-04-06T19:51:43.022Z,21.30
2019-04-06T19:54:11.977Z,19.48
2019-04-06T19:56:40.788Z,18.62
2019-04-06T19:59:12.567Z,20.75
2019-04-06T20:01:40.121Z,21.57
2019-04-06T20:04:08.699Z,19.25
2019-04-06T20:06:37.388Z,19.30
2019-04-06T20:09:07.696Z,20.72
2019-04-06T20:11:36.374Z,18.20
2019-04-06T20:14:05.220Z,21.95
2019-04-06T20:16:34.067Z,19.12
2019-04-06T20:19:02.650Z,20.05
2019-04-06T20:21:31.219Z,18.70
2019-04-06T20:24:00.552Z,21.25
2019-04-06T20:26:31.576Z,18.65
2019-04-06T20:28:59.404Z,17.92
2019-04-06T20:31:28.857Z,17.45
2019-04-06T20:33:57.510Z,21.10
2019-04-06T20:36:26.233Z,19.82
2019-04-06T20:38:54.922Z,18.42
2019-04-06T20:41:23.495Z,19.85
2019-04-06T20:43:52.079Z,20.57
2019-04-06T20:46:20.709Z,21.45
2019-04-06T20:48:49.289Z,18.92
2019-04-06T20:51:18.017Z,21.57
2019-04-06T20:53:46.534Z,18.57
2019-04-06T20:56:15.077Z,18.50
2019-04-06T20:58:44.058Z,20.72
2019-04-06T21:01:13.006Z,16.12
2019-04-06T21:03:41.618Z,18.07
2019-04-06T21:06:10.186Z,17.80
2019-04-06T21:08:39.078Z,17.77
2019-04-06T21:11:08.313Z,17.25
2019-04-06T21:13:36.874Z,19.20
2019-04-06T21:16:05.759Z,20.92
2019-04-06T21:18:34.299Z,18.48
2019-04-06T21:21:03.017Z,21.23
2019-04-06T21:23:32.062Z,20.50
2019-04-06T21:26:00.749Z,21.27
2019-04-06T21:28:29.896Z,20.30
2019-04-06T21:30:58.656Z,20.77
2019-04-06T21:33:27.570Z,20.27
2019-04-06T21:35:56.155Z,21.87
2019-04-06T21:38:25.138Z,19.90
2019-04-06T21:40:53.705Z,18.77
2019-04-06T21:43:22.452Z,19.12
2019-04-06T21:45:51.155Z,21.95
2019-04-06T21:48:19.744Z,20.37
2019-04-06T21:50:48.271Z,22.22
2019-04-06T21:53:17.273Z,21.30
2019-04-06T21:55:45.974Z,18.17
2019-04-06T21:58:14.502Z,20.08
2019-04-06T22:00:44.897Z,18.42
2019-04-06T22:03:13.904Z,17.32
2019-04-06T22:05:42.489Z,20.50
2019-04-06T22:08:11.039Z,19.55
2019-04-06T22:10:39.618Z,19.75
2019-04-06T22:13:08.365Z,19.37
2019-04-06T22:15:37.179Z,17.95
2019-04-06T22:18:06.187Z,17.30
2019-04-06T22:20:35.534Z,16.93
2019-04-06T22:23:04.194Z,19.30
2019-04-06T22:25:33.442Z,17.60
2019-04-06T22:28:02.045Z,18.40
2019-04-06T22:30:30.666Z,16.30
2019-04-06T22:32:59.229Z,14.47
2019-04-06T22:35:28.367Z,17.55
2019-04-06T22:37:56.973Z,15.30
2019-04-06T22:40:25.644Z,17.02
2019-04-06T22:42:54.150Z,15.10
2019-04-06T22:45:24.409Z,18.55
2019-04-06T22:47:53.230Z,12.90
2019-04-06T22:50:22.065Z,13.88
2019-04-06T22:52:50.627Z,20.30
2019-04-06T22:55:19.303Z,15.25
2019-04-06T22:57:47.874Z,16.50
2019-04-06T23:00:27.505Z,14.40
2019-04-06T23:02:57.670Z,15.18
2019-04-06T23:05:27.920Z,15.25
2019-04-06T23:07:56.476Z,11.83
2019-04-06T23:10:25.085Z,12.80
2019-04-06T23:12:54.126Z,13.95
2019-04-06T23:15:23.266Z,14.00
2019-04-06T23:17:52.099Z,14.07
2019-04-06T23:20:21.772Z,11.35
2019-04-06T23:22:50.329Z,12.00
2019-04-06T23:25:18.915Z,12.43
2019-04-06T23:27:47.841Z,15.03
2019-04-06T23:30:16.910Z,12.55
2019-04-06T23:32:45.589Z,13.70
2019-04-06T23:35:14.194Z,12.07
2019-04-06T23:37:42.674Z,11.28
2019-04-06T23:40:11.297Z,11.75
2019-04-06T23:42:40.404Z,12.23
2019-04-06T23:45:09.176Z,9.88
2019-04-06T23:47:37.756Z,9.85
2019-04-06T23:50:07.604Z,10.45
2019-04-06T23:52:36.490Z,10.38
2019-04-06T23:55:08.350Z,11.03
2019-04-06T23:57:37.245Z,11.93
